The Medway Towns, United Kingdom
Current Conditions -  °F | °C
As of 10:20 AM on Thursday 27 Nov 2014 (Local Time) from EGMC Reporting Station
Broken Clouds Broken Clouds  
Wind Chill: 52°   Ceiling: 4000
Heat Index: 52°   Visibility: 6mi
Dew Point: 48°   Wind: 7mph
Humidity: 88%   Direction: 200°SSW
Pressure: 29.62"   Gusts: NA
Location:  51.36°N, 0.54°E
Report Text: EGMC 271020Z 20006KT 9999 FEW009 SCT016 BKN040 11/09 Q1003
Loading
Personal Weather Stations






























Interactive Weather Map New forecast layout! Learn more

10-Day Weather Forecast

Advertisements
Track Severe Weather on mobile